createdAt,value
2023-02-19T00:31:34.950Z,90.90
2023-02-19T00:34:05.630Z,91.70
2023-02-19T00:51:27.532Z,92.30
2023-02-19T01:33:53.115Z,97.10
2023-02-19T02:25:18.600Z,93.70
2023-02-19T02:38:04.787Z,94.70
2023-02-19T02:48:21.321Z,94.60
2023-02-19T03:01:37.084Z,95.60
2023-02-19T03:14:53.703Z,95.90
2023-02-19T03:59:04.321Z,99.90
2023-02-19T05:06:11.355Z,99.90
2023-02-19T05:11:08.873Z,99.90
2023-02-19T06:03:00.486Z,99.90
2023-02-19T07:02:11.858Z,99.90
2023-02-19T07:04:38.873Z,99.90
2023-02-19T07:07:05.760Z,99.90
2023-02-19T07:09:32.836Z,99.90
2023-02-19T07:11:59.772Z,99.90
2023-02-19T07:14:26.836Z,99.90
2023-02-19T07:16:53.776Z,99.90
2023-02-19T07:19:20.927Z,99.90
2023-02-19T07:21:47.836Z,99.90
2023-02-19T07:24:17.181Z,99.90
2023-02-19T07:26:44.097Z,99.90
2023-02-19T07:29:11.130Z,99.90
2023-02-19T07:31:38.091Z,99.90
2023-02-19T07:34:05.116Z,99.90
2023-02-19T07:38:59.712Z,99.90
2023-02-19T07:41:27.251Z,99.90
2023-02-19T07:43:54.792Z,99.90
2023-02-19T07:46:22.228Z,99.90
2023-02-19T07:48:49.203Z,99.90
2023-02-19T07:51:19.059Z,99.90
2023-02-19T07:53:46.724Z,99.90
2023-02-19T07:58:41.138Z,99.90
2023-02-19T08:01:08.116Z,99.90
2023-02-19T08:03:35.764Z,99.90
2023-02-19T08:06:02.730Z,99.90
2023-02-19T08:08:29.671Z,99.90
2023-02-19T08:11:17.775Z,99.90
2023-02-19T08:13:44.750Z,99.90
2023-02-19T08:16:19.924Z,99.90
2023-02-19T08:18:49.356Z,99.90
2023-02-19T08:21:18.483Z,99.90
2023-02-19T08:23:46.432Z,99.90
2023-02-19T08:26:13.571Z,98.50
2023-02-19T08:28:40.565Z,98.30
2023-02-19T08:31:08.586Z,98.20
2023-02-19T08:33:35.895Z,98.50
2023-02-19T08:36:04.954Z,98.00
2023-02-19T08:38:32.679Z,97.90
2023-02-19T08:40:59.544Z,97.30
2023-02-19T08:43:26.512Z,96.40
2023-02-19T08:45:53.786Z,97.00
2023-02-19T08:48:20.739Z,96.80
2023-02-19T08:50:53.374Z,96.80
2023-02-19T08:53:20.331Z,97.60
2023-02-19T08:55:47.219Z,97.50
2023-02-19T08:58:14.106Z,97.30
2023-02-19T09:03:08.160Z,97.70
2023-02-19T09:05:35.051Z,97.40
2023-02-19T09:08:02.046Z,96.80
2023-02-19T09:10:29.014Z,96.70
2023-02-19T09:12:55.993Z,96.70
2023-02-19T09:15:22.905Z,96.20
2023-02-19T09:17:53.212Z,95.20
2023-02-19T09:20:20.292Z,93.10
2023-02-19T09:22:47.234Z,92.20
2023-02-19T09:25:14.073Z,92.40
2023-02-19T09:27:41.108Z,89.20
2023-02-19T09:30:08.346Z,89.60
2023-02-19T09:35:02.526Z,87.50
2023-02-19T09:37:29.722Z,86.60
2023-02-19T09:39:56.719Z,85.60
2023-02-19T09:42:29.835Z,85.40
2023-02-19T09:44:58.453Z,83.10
2023-02-19T09:47:27.195Z,81.50
2023-02-19T09:49:59.448Z,81.60
2023-02-19T09:52:26.478Z,79.50
2023-02-19T09:54:57.751Z,78.40
2023-02-19T09:57:26.290Z,77.60
2023-02-19T10:00:05.720Z,76.00
2023-02-19T10:02:33.272Z,74.50
2023-02-19T10:05:00.671Z,74.70
2023-02-19T10:07:37.418Z,73.40
2023-02-19T10:10:13.275Z,69.30
2023-02-19T10:12:52.418Z,70.50
2023-02-19T10:15:25.636Z,68.10
2023-02-19T10:17:53.025Z,71.00
2023-02-19T10:20:24.784Z,73.00
2023-02-19T10:22:55.560Z,73.00
2023-02-19T10:25:22.568Z,72.70
2023-02-19T10:27:49.934Z,71.00
2023-02-19T10:30:25.152Z,70.80
2023-02-19T10:33:03.658Z,72.00
2023-02-19T10:35:31.382Z,73.90
2023-02-19T10:37:59.200Z,74.60
2023-02-19T10:40:27.570Z,75.20
2023-02-19T10:42:59.433Z,77.00
2023-02-19T10:45:32.130Z,77.40
2023-02-19T10:48:01.328Z,77.50
2023-02-19T10:50:31.448Z,78.30
2023-02-19T10:53:00.005Z,78.10
2023-02-19T10:55:27.388Z,77.90
2023-02-19T10:57:55.240Z,78.90
2023-02-19T11:00:27.924Z,80.30
2023-02-19T11:03:15.692Z,80.80
2023-02-19T11:06:00.530Z,79.80
2023-02-19T11:08:28.270Z,79.20
2023-02-19T11:10:57.265Z,79.50
2023-02-19T11:13:27.372Z,79.30
2023-02-19T11:15:55.628Z,78.10
2023-02-19T11:18:32.441Z,77.40
2023-02-19T11:21:04.055Z,76.70
2023-02-19T11:23:35.654Z,76.20
2023-02-19T11:26:07.349Z,75.40
2023-02-19T11:28:39.298Z,76.10
2023-02-19T11:31:22.003Z,76.30
2023-02-19T11:33:59.961Z,77.20
2023-02-19T11:36:37.048Z,78.60
2023-02-19T11:39:09.990Z,77.80
2023-02-19T11:41:48.725Z,71.20
2023-02-19T11:44:30.440Z,63.20
2023-02-19T11:47:03.526Z,60.90
2023-02-19T11:49:33.297Z,65.00
2023-02-19T11:52:08.260Z,68.50
2023-02-19T11:54:46.428Z,70.40
2023-02-19T11:57:22.613Z,69.30
2023-02-19T12:00:07.988Z,69.90
2023-02-19T12:02:47.772Z,70.20
2023-02-19T12:05:22.024Z,69.70
2023-02-19T12:07:49.080Z,68.40
2023-02-19T12:12:56.005Z,68.60
2023-02-19T12:15:31.092Z,66.20
2023-02-19T12:17:59.058Z,66.10
2023-02-19T12:20:31.782Z,64.50
2023-02-19T12:23:11.323Z,65.40
2023-02-19T12:25:47.530Z,64.30
2023-02-19T12:28:29.126Z,63.90
2023-02-19T12:31:14.411Z,62.30
2023-02-19T12:33:44.179Z,64.60
2023-02-19T12:36:14.476Z,65.90
2023-02-19T12:38:50.822Z,65.00
2023-02-19T12:41:27.168Z,63.10
2023-02-19T12:44:00.891Z,57.80
2023-02-19T12:46:39.995Z,56.70
2023-02-19T12:49:07.578Z,55.80
2023-02-19T12:51:57.745Z,53.70
2023-02-19T12:54:34.462Z,53.80
2023-02-19T12:57:07.848Z,55.00
2023-02-19T12:59:41.253Z,53.30
2023-02-19T13:02:27.394Z,52.60
2023-02-19T13:05:14.574Z,51.90
2023-02-19T13:07:47.470Z,53.20
2023-02-19T13:10:23.972Z,55.10
2023-02-19T13:12:52.111Z,52.70
2023-02-19T13:15:28.718Z,52.20
2023-02-19T13:17:57.246Z,52.80
2023-02-19T13:20:28.869Z,52.60
2023-02-19T13:23:20.348Z,52.30
2023-02-19T13:25:50.124Z,53.10
2023-02-19T13:28:34.211Z,51.70
2023-02-19T13:31:25.795Z,51.10
2023-02-19T13:34:06.013Z,52.20
2023-02-19T13:36:37.959Z,52.30
2023-02-19T13:39:05.805Z,52.80
2023-02-19T13:41:39.613Z,54.60
2023-02-19T13:44:08.973Z,52.70
2023-02-19T13:46:38.549Z,50.80
2023-02-19T13:49:23.953Z,51.50
2023-02-19T13:51:51.837Z,52.60
2023-02-19T13:54:23.703Z,52.30
2023-02-19T13:57:11.194Z,53.20
2023-02-19T13:59:39.668Z,52.80
2023-02-19T14:02:11.084Z,52.50
2023-02-19T14:04:43.155Z,51.50
2023-02-19T14:07:10.413Z,53.40
2023-02-19T14:09:37.971Z,53.20
2023-02-19T14:12:08.051Z,52.10
2023-02-19T14:14:48.753Z,52.30
2023-02-19T14:19:49.389Z,53.00
2023-02-19T14:22:35.232Z,52.30
2023-02-19T14:25:06.711Z,50.90
2023-02-19T14:27:34.068Z,51.10
2023-02-19T14:30:04.786Z,52.90
2023-02-19T14:32:32.037Z,52.30
2023-02-19T14:35:00.679Z,52.90
2023-02-19T14:37:28.442Z,52.30
2023-02-19T14:39:59.112Z,52.20
2023-02-19T14:42:32.827Z,51.40
2023-02-19T14:45:01.787Z,53.20
2023-02-19T14:47:32.857Z,53.90
2023-02-19T14:50:00.755Z,52.30
2023-02-19T14:52:37.343Z,52.20
2023-02-19T14:55:09.098Z,52.90
2023-02-19T14:57:42.377Z,51.20
2023-02-19T15:00:23.673Z,52.80
2023-02-19T15:02:51.731Z,52.30
2023-02-19T15:05:22.650Z,52.20
2023-02-19T15:07:51.199Z,52.20
2023-02-19T15:10:23.114Z,54.00
2023-02-19T15:12:53.296Z,54.70
2023-02-19T15:15:25.113Z,55.40
2023-02-19T15:17:54.054Z,56.80
2023-02-19T15:20:25.584Z,57.90
2023-02-19T15:22:55.371Z,57.90
2023-02-19T15:25:24.407Z,56.80
2023-02-19T15:27:52.194Z,57.70
2023-02-19T15:30:22.381Z,58.50
2023-02-19T15:32:55.452Z,59.80
2023-02-19T15:35:25.970Z,59.20
2023-02-19T15:37:57.785Z,59.00
2023-02-19T15:40:31.999Z,57.60
2023-02-19T15:43:00.767Z,57.40
2023-02-19T15:45:45.189Z,58.00
2023-02-19T15:48:23.926Z,59.10
2023-02-19T15:50:58.512Z,60.00
2023-02-19T15:53:29.694Z,59.50
2023-02-19T15:56:07.994Z,59.90
2023-02-19T15:58:35.609Z,61.20
2023-02-19T16:01:16.282Z,60.90
2023-02-19T16:03:44.725Z,60.30
2023-02-19T16:06:16.216Z,61.30
2023-02-19T16:08:45.158Z,62.10
2023-02-19T16:11:31.159Z,66.80
2023-02-19T16:14:19.035Z,67.10
2023-02-19T16:16:47.908Z,69.00
2023-02-19T16:19:20.324Z,70.60
2023-02-19T16:21:48.190Z,70.10
2023-02-19T16:24:30.473Z,71.30
2023-02-19T16:26:59.277Z,71.90
2023-02-19T16:29:28.785Z,73.20
2023-02-19T16:32:03.012Z,74.70
2023-02-19T16:34:39.942Z,73.90
2023-02-19T16:37:25.414Z,74.70
2023-02-19T16:40:08.215Z,66.60
2023-02-19T16:42:37.864Z,65.30
2023-02-19T16:45:10.136Z,61.50
2023-02-19T16:47:38.476Z,60.60
2023-02-19T16:50:13.747Z,60.00
2023-02-19T16:52:53.612Z,59.60
2023-02-19T16:55:21.424Z,59.20
2023-02-19T16:57:51.998Z,57.90
2023-02-19T17:00:21.477Z,59.20
2023-02-19T17:02:52.381Z,59.10
2023-02-19T17:05:20.930Z,58.90
2023-02-19T17:07:49.220Z,59.40
2023-02-19T17:10:25.327Z,59.30
2023-02-19T17:12:54.057Z,60.30
2023-02-19T17:15:22.197Z,60.70
2023-02-19T17:17:50.206Z,60.60
2023-02-19T17:20:17.457Z,62.00
2023-02-19T17:22:45.343Z,62.40
2023-02-19T17:25:31.975Z,63.60
2023-02-19T17:28:00.968Z,64.20
2023-02-19T17:30:29.706Z,64.00
2023-02-19T17:32:59.161Z,63.90
2023-02-19T17:35:28.516Z,63.90
2023-02-19T17:37:56.714Z,63.90
2023-02-19T17:40:33.871Z,64.50
2023-02-19T17:43:01.970Z,63.60
2023-02-19T17:45:29.738Z,62.90
2023-02-19T17:48:00.580Z,63.40
2023-02-19T17:50:30.394Z,63.80
2023-02-19T17:52:58.538Z,64.00
2023-02-19T17:55:27.270Z,63.50
2023-02-19T17:57:56.479Z,63.90
2023-02-19T18:00:26.684Z,64.60
2023-02-19T18:02:54.482Z,66.00
2023-02-19T18:05:22.995Z,67.10
2023-02-19T18:07:50.906Z,67.90
2023-02-19T18:10:20.802Z,68.00
2023-02-19T18:12:48.314Z,70.50
2023-02-19T18:15:17.465Z,71.60
2023-02-19T18:17:44.758Z,73.20
2023-02-19T18:20:16.579Z,74.90
2023-02-19T18:22:44.114Z,75.80
2023-02-19T18:25:13.721Z,76.60
2023-02-19T18:27:41.683Z,77.90
2023-02-19T18:30:10.035Z,79.70
2023-02-19T18:32:37.336Z,81.50
2023-02-19T18:35:06.912Z,83.10
2023-02-19T18:37:36.125Z,84.40
2023-02-19T18:40:05.102Z,84.70
2023-02-19T18:42:32.862Z,85.40
2023-02-19T18:45:00.594Z,85.70
2023-02-19T18:47:29.158Z,85.50
2023-02-19T18:49:57.988Z,86.40
2023-02-19T18:52:26.503Z,86.50
2023-02-19T18:54:56.316Z,86.90
2023-02-19T18:57:25.219Z,87.10
2023-02-19T18:59:57.724Z,87.30
2023-02-19T19:02:25.110Z,88.80
2023-02-19T19:04:53.488Z,90.10
2023-02-19T19:07:22.052Z,90.30
2023-02-19T19:09:49.978Z,90.50
2023-02-19T19:12:17.499Z,91.30
2023-02-19T19:17:12.995Z,91.90
2023-02-19T19:22:11.153Z,93.10
2023-02-19T19:24:39.129Z,93.20
2023-02-19T19:27:07.001Z,93.50
2023-02-19T19:29:36.391Z,93.80
2023-02-19T19:32:08.376Z,94.20
2023-02-19T19:34:37.966Z,94.60
2023-02-19T19:37:05.776Z,94.90
2023-02-19T19:39:33.517Z,95.60
2023-02-19T19:42:01.412Z,95.90
2023-02-19T19:44:32.620Z,96.30
2023-02-19T19:47:02.307Z,96.50
2023-02-19T19:49:30.196Z,96.60
2023-02-19T19:52:01.550Z,97.20
2023-02-19T19:54:29.594Z,97.30
2023-02-19T19:56:57.504Z,97.80
2023-02-19T19:59:25.405Z,98.30
2023-02-19T20:01:55.256Z,98.10
2023-02-19T20:04:24.334Z,98.40
2023-02-19T20:06:54.423Z,99.00
2023-02-19T20:09:27.393Z,99.40
2023-02-19T20:11:55.418Z,99.50
2023-02-19T20:14:26.433Z,99.50
2023-02-19T20:16:56.883Z,99.80
2023-02-19T20:19:24.572Z,99.30
2023-02-19T20:24:25.114Z,98.50
2023-02-19T20:26:59.252Z,98.40
2023-02-19T20:29:29.695Z,97.80
2023-02-19T20:32:00.412Z,97.80
2023-02-19T20:34:30.436Z,98.10
2023-02-19T20:36:57.712Z,98.20
2023-02-19T20:39:32.323Z,98.40
2023-02-19T20:42:00.217Z,98.40
2023-02-19T20:44:28.673Z,98.20
2023-02-19T20:47:00.245Z,98.40
2023-02-19T20:49:29.509Z,98.60
2023-02-19T20:51:59.009Z,98.40
2023-02-19T20:54:30.988Z,98.20
2023-02-19T20:56:59.803Z,97.70
2023-02-19T20:59:30.865Z,97.70
2023-02-19T21:01:59.108Z,97.80
2023-02-19T21:04:26.941Z,97.50
2023-02-19T21:06:54.508Z,97.30
2023-02-19T21:09:22.791Z,97.40
2023-02-19T21:11:50.593Z,97.40
2023-02-19T21:14:18.745Z,97.40
2023-02-19T21:16:48.737Z,97.40
2023-02-19T21:19:16.846Z,97.40
2023-02-19T21:21:44.262Z,97.40
2023-02-19T21:26:40.528Z,97.40
2023-02-19T21:29:11.030Z,97.30
2023-02-19T21:31:38.242Z,97.50
2023-02-19T21:34:08.779Z,97.60
2023-02-19T21:36:36.906Z,97.60
2023-02-19T21:39:05.080Z,97.60
2023-02-19T21:41:32.329Z,97.60
2023-02-19T21:43:59.383Z,97.50
2023-02-19T21:46:26.454Z,97.70
2023-02-19T21:48:54.571Z,97.80
2023-02-19T21:51:23.813Z,98.00
2023-02-19T21:53:51.154Z,98.20
2023-02-19T21:56:22.708Z,98.10
2023-02-19T21:58:49.764Z,98.20
2023-02-19T22:01:22.766Z,98.30
2023-02-19T22:03:49.723Z,98.20
2023-02-19T22:06:17.121Z,98.30
2023-02-19T22:08:44.560Z,98.30
2023-02-19T22:11:11.554Z,98.40
2023-02-19T22:13:39.781Z,98.60
2023-02-19T22:16:07.059Z,98.80
2023-02-19T22:18:34.734Z,99.00
2023-02-19T22:21:02.847Z,99.20
2023-02-19T22:23:29.760Z,99.20
2023-02-19T22:25:56.746Z,99.40
2023-02-19T22:28:23.652Z,99.50
2023-02-19T22:30:50.508Z,99.60
2023-02-19T22:33:17.781Z,99.60
2023-02-19T22:35:44.718Z,99.60
2023-02-19T22:38:11.825Z,99.50
2023-02-19T22:40:38.765Z,99.50
2023-02-19T22:43:05.700Z,99.90
2023-02-19T22:45:32.605Z,99.90
2023-02-19T22:47:59.584Z,99.90
2023-02-19T22:50:26.682Z,99.90
2023-02-19T22:52:56.171Z,99.90
2023-02-19T22:55:23.055Z,99.90
2023-02-19T22:57:50.088Z,99.90
2023-02-19T23:00:18.478Z,99.90
2023-02-19T23:02:48.305Z,99.90
2023-02-19T23:05:15.712Z,99.90
2023-02-19T23:07:46.066Z,99.90
2023-02-19T23:10:13.343Z,99.90
2023-02-19T23:12:40.712Z,99.90
2023-02-19T23:15:09.274Z,99.90
2023-02-19T23:17:36.318Z,99.90
2023-02-19T23:20:03.567Z,99.90
2023-02-19T23:22:30.467Z,99.90
2023-02-19T23:24:57.535Z,99.90
2023-02-19T23:27:24.504Z,99.90
2023-02-19T23:29:51.421Z,99.90
2023-02-19T23:32:21.146Z,99.90
2023-02-19T23:34:48.587Z,99.90
2023-02-19T23:37:15.507Z,99.90
2023-02-19T23:39:42.374Z,99.90
2023-02-19T23:42:12.442Z,99.90
2023-02-19T23:44:39.506Z,99.90
2023-02-19T23:49:36.351Z,99.90
2023-02-19T23:52:03.274Z,99.90
2023-02-19T23:54:30.483Z,99.90
2023-02-19T23:56:57.371Z,99.90
2023-02-19T23:59:24.304Z,99.90
